JST3PO YBCS-YBTL
Flight info
| Callsign | JST3PO |
|---|---|
| Flight time | 0h 33m |
| Altitude | 19000 |
| Route | CS V264 IGIKI V153 TL |
| Aircraft | A20N/M-SDE2E3FGHIRWXY/LB1 |
Departure
| Time | 2026-05-05 17:57 |
|---|---|
| Airport | Cairns International Airport (YBCS) |
Arrival
| Time | 2026-05-05 18:31 |
|---|---|
| Airport | Townsville Airport / RAAF Base Townsville (YBTL) |
| Time | Latitude | Longitude | Altitude | Speed | Heading |
|---|---|---|---|---|---|
| 2026-05-05 17:25 | -16.87409 | 145.75127 | 17 ft | 0 kts | 66° |
| 2026-05-05 17:45 | -16.87409 | 145.75125 | 17 ft | 0 kts | 66° |
| 2026-05-05 17:46 | -16.87413 | 145.75117 | 17 ft | 2 kts | 65° |
| 2026-05-05 17:46 | -16.87419 | 145.75104 | 16 ft | 2 kts | 66° |
| 2026-05-05 17:46 | -16.87425 | 145.75089 | 16 ft | 2 kts | 65° |
| 2026-05-05 17:46 | -16.87429 | 145.75079 | 16 ft | 1 kts | 66° |
| 2026-05-05 17:47 | -16.87438 | 145.75067 | 16 ft | 2 kts | 37° |
| 2026-05-05 17:47 | -16.87451 | 145.75060 | 16 ft | 2 kts | 11° |
| 2026-05-05 17:47 | -16.87466 | 145.75060 | 15 ft | 2 kts | 346° |
| 2026-05-05 17:47 | -16.87473 | 145.75061 | 15 ft | 1 kts | 332° |
| 2026-05-05 17:48 | -16.87477 | 145.75064 | 15 ft | 0 kts | 336° |
| 2026-05-05 17:51 | -16.87476 | 145.75063 | 15 ft | 0 kts | 336° |
| 2026-05-05 17:51 | -16.87472 | 145.75061 | 15 ft | 0 kts | 336° |
| 2026-05-05 17:51 | -16.87461 | 145.75056 | 15 ft | 5 kts | 337° |
| 2026-05-05 17:51 | -16.87419 | 145.75038 | 16 ft | 7 kts | 337° |
| 2026-05-05 17:52 | -16.87367 | 145.75014 | 16 ft | 10 kts | 328° |
| 2026-05-05 17:52 | -16.87313 | 145.74945 | 17 ft | 13 kts | 295° |
| 2026-05-05 17:52 | -16.87264 | 145.74863 | 18 ft | 13 kts | 329° |
| 2026-05-05 17:52 | -16.87175 | 145.74823 | 18 ft | 12 kts | 337° |
| 2026-05-05 17:53 | -16.87090 | 145.74786 | 17 ft | 14 kts | 337° |
| 2026-05-05 17:53 | -16.87049 | 145.74710 | 18 ft | 10 kts | 256° |
| 2026-05-05 17:53 | -16.87053 | 145.74699 | 18 ft | 0 kts | 249° |
| 2026-05-05 17:55 | -16.87057 | 145.74687 | 18 ft | 6 kts | 249° |
| 2026-05-05 17:56 | -16.87083 | 145.74622 | 18 ft | 10 kts | 248° |
| 2026-05-05 17:56 | -16.87119 | 145.74599 | 18 ft | 6 kts | 158° |
| 2026-05-05 17:56 | -16.87271 | 145.74667 | 17 ft | 61 kts | 156° |
| 2026-05-05 17:56 | -16.87919 | 145.74960 | 19 ft | 137 kts | 155° |
| 2026-05-05 17:57 | -16.88905 | 145.75412 | 406 ft | 163 kts | 155° |
| 2026-05-05 17:57 | -16.89937 | 145.75874 | 1322 ft | 161 kts | 154° |
| 2026-05-05 17:57 | -16.90920 | 145.76325 | 2210 ft | 159 kts | 153° |
| 2026-05-05 17:57 | -16.91970 | 145.76808 | 2788 ft | 175 kts | 152° |
| 2026-05-05 17:58 | -16.93113 | 145.77338 | 3443 ft | 186 kts | 152° |
| 2026-05-05 17:58 | -16.94315 | 145.77893 | 4249 ft | 191 kts | 153° |
| 2026-05-05 17:58 | -16.95528 | 145.78455 | 4989 ft | 199 kts | 152° |
| 2026-05-05 17:58 | -16.96843 | 145.79083 | 5628 ft | 215 kts | 147° |
| 2026-05-05 17:59 | -16.97940 | 145.80176 | 6240 ft | 228 kts | 117° |
| 2026-05-05 17:59 | -16.98352 | 145.81796 | 6852 ft | 245 kts | 94° |
| 2026-05-05 17:59 | -16.98566 | 145.83621 | 7459 ft | 264 kts | 108° |
| 2026-05-05 17:59 | -16.99540 | 145.85298 | 8108 ft | 279 kts | 134° |
| 2026-05-05 18:00 | -17.01008 | 145.86639 | 8902 ft | 286 kts | 139° |
| 2026-05-05 18:00 | -17.02511 | 145.88014 | 9615 ft | 293 kts | 137° |
| 2026-05-05 18:00 | -17.03996 | 145.89523 | 10310 ft | 300 kts | 134° |
| 2026-05-05 18:00 | -17.05454 | 145.91139 | 10794 ft | 316 kts | 132° |
| 2026-05-05 18:01 | -17.06971 | 145.92918 | 11173 ft | 335 kts | 131° |
| 2026-05-05 18:01 | -17.08520 | 145.94797 | 11501 ft | 353 kts | 130° |
| 2026-05-05 18:01 | -17.10165 | 145.96820 | 11793 ft | 371 kts | 130° |
| 2026-05-05 18:01 | -17.11859 | 145.98921 | 12083 ft | 388 kts | 130° |
| 2026-05-05 18:02 | -17.13642 | 146.01140 | 12397 ft | 402 kts | 130° |
| 2026-05-05 18:02 | -17.15435 | 146.03374 | 12943 ft | 408 kts | 130° |
| 2026-05-05 18:02 | -17.17276 | 146.05666 | 13594 ft | 412 kts | 130° |
| 2026-05-05 18:02 | -17.19146 | 146.07958 | 14197 ft | 415 kts | 133° |
| 2026-05-05 18:03 | -17.21383 | 146.09837 | 14710 ft | 420 kts | 150° |
| 2026-05-05 18:03 | -17.24098 | 146.11000 | 15251 ft | 422 kts | 167° |
| 2026-05-05 18:03 | -17.27012 | 146.11520 | 15812 ft | 424 kts | 174° |
| 2026-05-05 18:03 | -17.29965 | 146.11926 | 16313 ft | 429 kts | 175° |
| 2026-05-05 18:04 | -17.32947 | 146.12331 | 16796 ft | 434 kts | 175° |
| 2026-05-05 18:04 | -17.35926 | 146.12744 | 17307 ft | 438 kts | 174° |
| 2026-05-05 18:04 | -17.38974 | 146.13181 | 17821 ft | 441 kts | 174° |
| 2026-05-05 18:04 | -17.42048 | 146.13628 | 18303 ft | 445 kts | 174° |
| 2026-05-05 18:05 | -17.45112 | 146.14078 | 18754 ft | 448 kts | 174° |
| 2026-05-05 18:05 | -17.48216 | 146.14537 | 18953 ft | 448 kts | 174° |
| 2026-05-05 18:05 | -17.51333 | 146.15001 | 18959 ft | 448 kts | 174° |
| 2026-05-05 18:05 | -17.54395 | 146.15457 | 18977 ft | 448 kts | 175° |
| 2026-05-05 18:06 | -17.57506 | 146.15920 | 18971 ft | 448 kts | 175° |
| 2026-05-05 18:06 | -17.59572 | 146.16226 | 18967 ft | 448 kts | 175° |
| 2026-05-05 18:06 | -17.63698 | 146.16841 | 18961 ft | 448 kts | 174° |
| 2026-05-05 18:06 | -17.66812 | 146.17307 | 18976 ft | 449 kts | 174° |
| 2026-05-05 18:07 | -17.69886 | 146.17764 | 18963 ft | 449 kts | 174° |
| 2026-05-05 18:07 | -17.73013 | 146.18231 | 18975 ft | 450 kts | 174° |
| 2026-05-05 18:07 | -17.76093 | 146.18692 | 18965 ft | 450 kts | 175° |
| 2026-05-05 18:07 | -17.79223 | 146.19159 | 18967 ft | 450 kts | 174° |
| 2026-05-05 18:08 | -17.82311 | 146.19621 | 18971 ft | 450 kts | 174° |
| 2026-05-05 18:08 | -17.85432 | 146.20090 | 18963 ft | 450 kts | 174° |
| 2026-05-05 18:08 | -17.88558 | 146.20558 | 18953 ft | 450 kts | 174° |
| 2026-05-05 18:08 | -17.91633 | 146.21017 | 18950 ft | 449 kts | 175° |
| 2026-05-05 18:09 | -17.94748 | 146.21486 | 18957 ft | 449 kts | 174° |
| 2026-05-05 18:09 | -17.97876 | 146.21954 | 18970 ft | 450 kts | 174° |
| 2026-05-05 18:09 | -18.00953 | 146.22415 | 18966 ft | 449 kts | 174° |
| 2026-05-05 18:09 | -18.04055 | 146.23001 | 18957 ft | 451 kts | 170° |
| 2026-05-05 18:10 | -18.07114 | 146.23877 | 18971 ft | 454 kts | 164° |
| 2026-05-05 18:10 | -18.10063 | 146.25023 | 18956 ft | 455 kts | 160° |
| 2026-05-05 18:10 | -18.13027 | 146.26315 | 18954 ft | 456 kts | 159° |
| 2026-05-05 18:10 | -18.15920 | 146.27608 | 18960 ft | 455 kts | 159° |
| 2026-05-05 18:11 | -18.18863 | 146.28928 | 18965 ft | 456 kts | 159° |
| 2026-05-05 18:11 | -18.21763 | 146.30220 | 18963 ft | 455 kts | 159° |
| 2026-05-05 18:11 | -18.24705 | 146.31526 | 18965 ft | 456 kts | 159° |
| 2026-05-05 18:11 | -18.27606 | 146.32811 | 18974 ft | 455 kts | 159° |
| 2026-05-05 18:12 | -18.30550 | 146.34114 | 18977 ft | 455 kts | 159° |
| 2026-05-05 18:12 | -18.33489 | 146.35414 | 18959 ft | 455 kts | 159° |
| 2026-05-05 18:12 | -18.36390 | 146.36699 | 18972 ft | 456 kts | 159° |
| 2026-05-05 18:12 | -18.39330 | 146.37997 | 18974 ft | 455 kts | 159° |
| 2026-05-05 18:13 | -18.42273 | 146.39302 | 18949 ft | 456 kts | 159° |
| 2026-05-05 18:13 | -18.45173 | 146.40584 | 18789 ft | 455 kts | 159° |
| 2026-05-05 18:13 | -18.48103 | 146.41882 | 18498 ft | 453 kts | 159° |
| 2026-05-05 18:13 | -18.51019 | 146.43175 | 18182 ft | 451 kts | 159° |
| 2026-05-05 18:14 | -18.53877 | 146.44444 | 17894 ft | 446 kts | 159° |
| 2026-05-05 18:14 | -18.56724 | 146.45709 | 17571 ft | 438 kts | 159° |
| 2026-05-05 18:14 | -18.59511 | 146.46947 | 17262 ft | 435 kts | 159° |
| 2026-05-05 18:14 | -18.62319 | 146.48195 | 16968 ft | 433 kts | 159° |
| 2026-05-05 18:15 | -18.65105 | 146.49434 | 16679 ft | 430 kts | 159° |
| 2026-05-05 18:15 | -18.67833 | 146.50645 | 16367 ft | 425 kts | 159° |
| 2026-05-05 18:15 | -18.70537 | 146.51843 | 16045 ft | 414 kts | 159° |
| 2026-05-05 18:15 | -18.73193 | 146.53018 | 15740 ft | 410 kts | 159° |
| 2026-05-05 18:16 | -18.75800 | 146.54169 | 15433 ft | 407 kts | 159° |
| 2026-05-05 18:16 | -18.78425 | 146.55330 | 15131 ft | 405 kts | 159° |
| 2026-05-05 18:16 | -18.80988 | 146.56465 | 14821 ft | 402 kts | 159° |
| 2026-05-05 18:16 | -18.83580 | 146.57614 | 14532 ft | 400 kts | 159° |
| 2026-05-05 18:17 | -18.86143 | 146.58751 | 14209 ft | 396 kts | 159° |
| 2026-05-05 18:17 | -18.88688 | 146.59882 | 13896 ft | 394 kts | 158° |
| 2026-05-05 18:17 | -18.91168 | 146.60983 | 13602 ft | 384 kts | 158° |
| 2026-05-05 18:17 | -18.93616 | 146.62071 | 13280 ft | 375 kts | 158° |
| 2026-05-05 18:18 | -18.95977 | 146.63121 | 12948 ft | 367 kts | 158° |
| 2026-05-05 18:18 | -18.98319 | 146.64162 | 12612 ft | 359 kts | 158° |
| 2026-05-05 18:18 | -19.00624 | 146.65187 | 12282 ft | 355 kts | 158° |
| 2026-05-05 18:18 | -19.02883 | 146.66191 | 11963 ft | 352 kts | 157° |
| 2026-05-05 18:19 | -19.05148 | 146.67200 | 11620 ft | 349 kts | 157° |
| 2026-05-05 18:19 | -19.07359 | 146.68184 | 11297 ft | 345 kts | 157° |
| 2026-05-05 18:19 | -19.09577 | 146.69171 | 10971 ft | 342 kts | 157° |
| 2026-05-05 18:19 | -19.11771 | 146.70149 | 10651 ft | 340 kts | 156° |
| 2026-05-05 18:20 | -19.13958 | 146.71126 | 10324 ft | 336 kts | 156° |
| 2026-05-05 18:20 | -19.16083 | 146.72073 | 10009 ft | 329 kts | 156° |
| 2026-05-05 18:20 | -19.18150 | 146.72995 | 9689 ft | 318 kts | 156° |
| 2026-05-05 18:20 | -19.20176 | 146.73898 | 9381 ft | 307 kts | 156° |
| 2026-05-05 18:21 | -19.22104 | 146.74759 | 9056 ft | 297 kts | 155° |
| 2026-05-05 18:21 | -19.23978 | 146.75594 | 8723 ft | 289 kts | 155° |
| 2026-05-05 18:21 | -19.25832 | 146.76401 | 8392 ft | 284 kts | 156° |
| 2026-05-05 18:21 | -19.27650 | 146.77164 | 8060 ft | 281 kts | 156° |
| 2026-05-05 18:22 | -19.29480 | 146.77928 | 7721 ft | 278 kts | 156° |
| 2026-05-05 18:22 | -19.31264 | 146.78677 | 7431 ft | 275 kts | 156° |
| 2026-05-05 18:22 | -19.33058 | 146.79431 | 7155 ft | 274 kts | 156° |
| 2026-05-05 18:22 | -19.34810 | 146.80170 | 6872 ft | 272 kts | 155° |
| 2026-05-05 18:23 | -19.36573 | 146.80913 | 6597 ft | 270 kts | 156° |
| 2026-05-05 18:23 | -19.38398 | 146.81422 | 6325 ft | 272 kts | 171° |
| 2026-05-05 18:23 | -19.40280 | 146.81381 | 6059 ft | 274 kts | 184° |
| 2026-05-05 18:23 | -19.42179 | 146.81085 | 5784 ft | 273 kts | 185° |
| 2026-05-05 18:24 | -19.44038 | 146.80763 | 5619 ft | 271 kts | 186° |
| 2026-05-05 18:24 | -19.45835 | 146.80231 | 5541 ft | 263 kts | 205° |
| 2026-05-05 18:24 | -19.47186 | 146.78928 | 5302 ft | 264 kts | 235° |
| 2026-05-05 18:24 | -19.47813 | 146.77129 | 5033 ft | 266 kts | 263° |
| 2026-05-05 18:25 | -19.47800 | 146.75183 | 4759 ft | 266 kts | 272° |
| 2026-05-05 18:25 | -19.47710 | 146.73859 | 4593 ft | 266 kts | 275° |
| 2026-05-05 18:25 | -19.47369 | 146.71297 | 4267 ft | 264 kts | 283° |
| 2026-05-05 18:25 | -19.46562 | 146.69594 | 4000 ft | 257 kts | 317° |
| 2026-05-05 18:26 | -19.45058 | 146.68726 | 3746 ft | 244 kts | 355° |
| 2026-05-05 18:26 | -19.43403 | 146.68784 | 3587 ft | 231 kts | 10° |
| 2026-05-05 18:26 | -19.41848 | 146.69070 | 3343 ft | 225 kts | 19° |
| 2026-05-05 18:26 | -19.40367 | 146.69598 | 3050 ft | 221 kts | 26° |
| 2026-05-05 18:27 | -19.39008 | 146.70219 | 2762 ft | 207 kts | 28° |
| 2026-05-05 18:27 | -19.37725 | 146.70840 | 2553 ft | 192 kts | 28° |
| 2026-05-05 18:27 | -19.36554 | 146.71403 | 2318 ft | 180 kts | 28° |
| 2026-05-05 18:27 | -19.35429 | 146.71939 | 2055 ft | 171 kts | 28° |
| 2026-05-05 18:28 | -19.33345 | 146.72922 | 1625 ft | 162 kts | 28° |
| 2026-05-05 18:28 | -19.32304 | 146.73413 | 1414 ft | 161 kts | 27° |
| 2026-05-05 18:28 | -19.31309 | 146.73881 | 1203 ft | 150 kts | 27° |
| 2026-05-05 18:29 | -19.30396 | 146.74312 | 992 ft | 137 kts | 26° |
| 2026-05-05 18:29 | -19.29547 | 146.74713 | 822 ft | 132 kts | 26° |
| 2026-05-05 18:29 | -19.28702 | 146.75114 | 657 ft | 131 kts | 26° |
| 2026-05-05 18:29 | -19.27869 | 146.75505 | 484 ft | 131 kts | 26° |
| 2026-05-05 18:30 | -19.27030 | 146.75913 | 288 ft | 132 kts | 27° |
| 2026-05-05 18:30 | -19.26182 | 146.76303 | 118 ft | 135 kts | 25° |
| 2026-05-05 18:30 | -19.25326 | 146.76706 | 22 ft | 128 kts | 25° |
| 2026-05-05 18:30 | -19.24659 | 146.77031 | 26 ft | 80 kts | 22° |
| 2026-05-05 18:31 | -19.24367 | 146.77231 | 24 ft | 29 kts | 101° |
| 2026-05-05 18:31 | -19.24437 | 146.77356 | 24 ft | 18 kts | 162° |
| 2026-05-05 18:31 | -19.24555 | 146.77321 | 24 ft | 18 kts | 207° |
| 2026-05-05 18:31 | -19.24667 | 146.77261 | 25 ft | 17 kts | 206° |
| 2026-05-05 18:32 | -19.24772 | 146.77205 | 28 ft | 16 kts | 207° |
| 2026-05-05 18:32 | -19.24876 | 146.77148 | 29 ft | 16 kts | 206° |
| 2026-05-05 18:32 | -19.24981 | 146.77097 | 28 ft | 17 kts | 205° |
| 2026-05-05 18:32 | -19.25087 | 146.77040 | 26 ft | 16 kts | 212° |
| 2026-05-05 18:33 | -19.25189 | 146.76976 | 24 ft | 18 kts | 209° |
| 2026-05-05 18:33 | -19.25308 | 146.76910 | 17 ft | 17 kts | 207° |
| 2026-05-05 18:33 | -19.25384 | 146.76884 | 14 ft | 9 kts | 164° |
| 2026-05-05 18:33 | -19.25416 | 146.76910 | 14 ft | 4 kts | 129° |
| 2026-05-05 18:34 | -19.25449 | 146.76950 | 12 ft | 8 kts | 155° |
| 2026-05-05 18:34 | -19.25510 | 146.76945 | 14 ft | 7 kts | 194° |
| 2026-05-05 18:34 | -19.25526 | 146.76942 | 17 ft | 0 kts | 194° |
| 2026-05-05 18:34 | -19.25532 | 146.76941 | 18 ft | 1 kts | 194° |
| 2026-05-05 18:35 | -19.25548 | 146.76941 | 21 ft | 3 kts | 156° |
| 2026-05-05 18:35 | -19.25559 | 146.76956 | 23 ft | 0 kts | 111° |
| 2026-05-05 18:35 | -19.25561 | 146.76964 | 24 ft | 1 kts | 105° |
| 2026-05-05 18:35 | -19.25565 | 146.76978 | 26 ft | 4 kts | 105° |
| 2026-05-05 18:36 | -19.25567 | 146.76987 | 27 ft | 0 kts | 105° |
| 2026-05-05 18:36 | -19.25568 | 146.76990 | 27 ft | 0 kts | 107° |
| 2026-05-05 18:36 | -19.25569 | 146.76996 | 28 ft | 1 kts | 106° |
| 2026-05-05 18:36 | -19.25570 | 146.76999 | 28 ft | 0 kts | 107° |